Time;durP1;ratioP1;P1;durP2;ratioP2;P2;SDS_P1;SDS_P2;PMS_P1;PMS_P2;Temp;Humidity;BMP_temperature;BMP_pressure;BME280_temperature;BME280_humidity;BME280_pressure;Samples;Min_cycle;Max_cycle;Signal;HPM_P1;HPM_P2
2023/12/18 00:02:18;;;;;;;17.95;6.70;;;7.30;99.90;;;;;;5115808;28;20035;-76
2023/12/18 00:04:44;;;;;;;17.67;6.55;;;7.30;99.90;;;;;;5115925;28;20027;-76
2023/12/18 00:07:09;;;;;;;22.25;6.97;;;7.30;99.90;;;;;;5115651;28;20436;-76
2023/12/18 00:09:35;;;;;;;20.83;7.93;;;7.40;99.90;;;;;;5097341;28;20020;-76
2023/12/18 00:12:01;;;;;;;19.05;6.90;;;7.30;99.90;;;;;;5115461;28;20020;-77
2023/12/18 00:14:26;;;;;;;22.02;7.55;;;7.30;99.90;;;;;;5120868;28;20451;-74
2023/12/18 00:16:52;;;;;;;15.35;6.63;;;7.30;99.90;;;;;;5121774;28;20027;-74
2023/12/18 00:19:18;;;;;;;21.80;6.97;;;7.30;99.90;;;;;;5103370;28;20028;-74
2023/12/18 00:21:44;;;;;;;15.68;7.40;;;7.30;99.90;;;;;;5103999;28;20011;-74
2023/12/18 00:24:12;;;;;;;17.30;5.35;;;7.30;99.90;;;;;;5117923;28;20019;-76
2023/12/18 00:26:37;;;;;;;17.60;7.32;;;7.30;99.90;;;;;;5115360;28;20403;-76
2023/12/18 00:29:03;;;;;;;19.80;6.68;;;7.30;99.90;;;;;;5115479;28;20015;-77
2023/12/18 00:31:29;;;;;;;25.77;7.38;;;7.20;99.90;;;;;;5096990;28;20019;-76
2023/12/18 00:33:54;;;;;;;20.92;7.45;;;7.30;99.90;;;;;;5115334;28;20031;-76
2023/12/18 00:36:20;;;;;;;21.33;7.38;;;7.30;99.90;;;;;;5115122;28;20012;-77
2023/12/18 00:38:46;;;;;;;18.70;6.40;;;7.30;99.90;;;;;;5097208;28;20122;-76
2023/12/18 00:41:11;;;;;;;14.55;6.22;;;7.30;99.90;;;;;;5115151;28;20438;-76
2023/12/18 00:43:37;;;;;;;18.88;6.35;;;7.30;99.90;;;;;;5115193;28;20064;-76
2023/12/18 00:46:05;;;;;;;15.32;6.63;;;7.30;99.90;;;;;;5115159;28;20023;-77
2023/12/18 00:48:31;;;;;;;16.17;6.45;;;7.20;99.90;;;;;;5115111;28;20505;-76
2023/12/18 00:50:59;;;;;;;25.25;8.45;;;7.30;99.90;;;;;;5096411;28;20031;-76
2023/12/18 00:53:25;;;;;;;15.00;7.05;;;7.30;99.90;;;;;;5114869;28;20483;-76
2023/12/18 00:55:50;;;;;;;16.55;6.05;;;7.30;99.90;;;;;;5114712;28;20020;-76
2023/12/18 00:58:16;;;;;;;27.70;7.93;;;7.30;99.90;;;;;;5114883;28;20016;-76
2023/12/18 01:00:41;;;;;;;22.00;7.50;;;7.30;99.90;;;;;;5115104;28;20050;-76
2023/12/18 01:03:07;;;;;;;14.68;6.55;;;7.40;99.90;;;;;;5115014;28;20020;-76
2023/12/18 01:05:33;;;;;;;22.27;7.20;;;8.10;99.90;;;;;;5114907;28;20546;-77
2023/12/18 01:07:58;;;;;;;22.05;7.40;;;7.30;99.90;;;;;;5114741;28;20421;-77
2023/12/18 01:10:24;;;;;;;16.48;6.68;;;7.30;99.90;;;;;;5096356;28;20425;-76
2023/12/18 01:12:52;;;;;;;19.40;6.32;;;7.30;99.90;;;;;;5114407;28;20135;-76
2023/12/18 01:15:18;;;;;;;19.77;6.53;;;7.40;99.90;;;;;;5096612;28;20072;-76
2023/12/18 01:17:43;;;;;;;26.83;6.45;;;7.30;99.90;;;;;;5114615;28;20020;-76
2023/12/18 01:20:09;;;;;;;16.80;6.65;;;7.30;99.90;;;;;;5114376;28;20027;-76
2023/12/18 01:22:35;;;;;;;20.30;6.47;;;7.40;99.90;;;;;;5096199;28;20020;-76
2023/12/18 01:25:02;;;;;;;22.50;6.28;;;7.40;99.90;;;;;;5114258;28;20107;-76
2023/12/18 01:27:27;;;;;;;17.35;6.10;;;7.40;99.90;;;;;;5096126;28;20479;-76
2023/12/18 01:29:53;;;;;;;25.08;6.05;;;7.40;99.90;;;;;;5114348;28;20026;-76
2023/12/18 01:32:19;;;;;;;14.45;5.78;;;7.40;99.90;;;;;;5096515;28;20012;-75
2023/12/18 01:34:44;;;;;;;25.80;7.80;;;7.40;99.90;;;;;;5114205;28;20034;-77
2023/12/18 01:37:10;;;;;;;14.88;5.80;;;7.40;99.90;;;;;;5114236;28;20068;-77
2023/12/18 01:39:36;;;;;;;19.42;6.32;;;7.40;99.90;;;;;;5114329;28;20104;-76
2023/12/18 01:42:02;;;;;;;19.50;6.05;;;7.40;99.90;;;;;;5114096;28;20023;-75
2023/12/18 01:44:27;;;;;;;13.40;5.53;;;7.70;99.90;;;;;;5114693;28;20378;-77
2023/12/18 01:46:54;;;;;;;20.83;6.97;;;7.40;99.90;;;;;;5095777;28;20019;-76
2023/12/18 01:49:20;;;;;;;19.30;5.75;;;7.50;99.90;;;;;;5114394;28;20024;-77
2023/12/18 01:51:46;;;;;;;18.20;5.80;;;7.50;99.90;;;;;;5113923;28;20099;-77
2023/12/18 01:54:12;;;;;;;19.80;6.18;;;7.50;99.90;;;;;;5113837;28;20019;-76
2023/12/18 01:56:39;;;;;;;17.42;6.72;;;7.50;99.90;;;;;;5095646;28;20028;-77
2023/12/18 01:59:06;;;;;;;27.55;6.35;;;7.50;99.90;;;;;;5095429;28;20106;-76
2023/12/18 02:01:32;;;;;;;17.70;5.90;;;7.50;99.90;;;;;;5114129;28;20024;-76
2023/12/18 02:03:58;;;;;;;18.95;5.78;;;7.50;99.90;;;;;;5113970;28;20081;-77
2023/12/18 02:06:24;;;;;;;16.00;5.82;;;7.50;99.90;;;;;;5114073;28;20084;-76
2023/12/18 02:08:50;;;;;;;24.35;6.35;;;7.50;99.90;;;;;;5117643;28;20015;-76
2023/12/18 02:11:15;;;;;;;21.38;6.53;;;7.50;99.90;;;;;;5118049;28;20157;-75
2023/12/18 02:13:41;;;;;;;14.82;6.22;;;7.60;99.90;;;;;;5117996;28;20020;-76
2023/12/18 02:16:07;;;;;;;15.30;5.22;;;7.60;99.90;;;;;;5117828;28;20020;-76
2023/12/18 02:18:33;;;;;;;16.02;5.80;;;7.60;99.90;;;;;;5099623;28;20030;-76
2023/12/18 02:20:59;;;;;;;20.20;6.50;;;7.60;99.90;;;;;;5117956;28;20020;-75
2023/12/18 02:23:24;;;;;;;18.95;6.60;;;7.60;99.90;;;;;;5117908;28;20028;-76
2023/12/18 02:25:50;;;;;;;19.80;6.57;;;7.60;99.90;;;;;;5099489;28;20019;-76
2023/12/18 02:28:17;;;;;;;15.88;5.88;;;7.60;99.90;;;;;;5117656;28;20080;-76
2023/12/18 02:30:43;;;;;;;13.40;6.38;;;7.60;99.90;;;;;;5117560;28;20024;-77
2023/12/18 02:33:09;;;;;;;17.33;6.45;;;7.50;99.90;;;;;;5117533;28;20028;-76
2023/12/18 02:35:35;;;;;;;17.08;6.45;;;7.60;99.90;;;;;;5117336;28;20026;-76
2023/12/18 02:38:01;;;;;;;14.25;5.68;;;7.60;99.90;;;;;;5117761;28;20020;-76
2023/12/18 02:40:27;;;;;;;16.75;5.75;;;7.60;99.90;;;;;;5117267;28;20027;-75
2023/12/18 02:42:53;;;;;;;15.35;5.18;;;7.60;99.90;;;;;;5099422;28;20064;-76
2023/12/18 02:45:18;;;;;;;14.23;5.28;;;7.70;99.90;;;;;;5099110;28;20027;-77
2023/12/18 02:47:44;;;;;;;19.05;5.15;;;7.70;99.90;;;;;;5099285;28;20038;-77
2023/12/18 02:50:10;;;;;;;17.00;5.57;;;7.70;99.90;;;;;;5117427;28;20026;-76
2023/12/18 02:52:35;;;;;;;19.17;5.95;;;7.60;99.90;;;;;;5116990;28;20115;-76
2023/12/18 02:55:01;;;;;;;18.85;5.97;;;7.60;99.90;;;;;;5099054;28;20023;-77
2023/12/18 02:57:27;;;;;;;20.13;6.22;;;7.60;99.90;;;;;;5117241;28;20027;-77
2023/12/18 02:59:53;;;;;;;14.77;5.60;;;7.60;99.90;;;;;;5098795;28;20364;-76
2023/12/18 03:02:18;;;;;;;15.70;5.68;;;7.60;99.90;;;;;;5118026;28;20034;-77
2023/12/18 03:04:44;;;;;;;22.25;5.93;;;7.60;99.90;;;;;;5098779;28;20068;-74
2023/12/18 03:07:10;;;;;;;13.55;5.82;;;7.60;99.90;;;;;;5117033;28;20020;-77
2023/12/18 03:09:36;;;;;;;15.40;5.85;;;7.60;99.90;;;;;;5098745;28;20016;-76
2023/12/18 03:12:02;;;;;;;19.48;6.70;;;7.60;99.90;;;;;;5116753;28;20435;-77
2023/12/18 03:14:27;;;;;;;14.65;5.97;;;7.60;99.90;;;;;;5116812;28;20051;-75
2023/12/18 03:16:53;;;;;;;21.05;5.85;;;7.60;99.90;;;;;;5117190;28;20027;-76
2023/12/18 03:19:19;;;;;;;17.25;6.45;;;7.70;99.90;;;;;;5098668;28;20671;-76
2023/12/18 03:21:48;;;;;;;15.32;6.00;;;7.70;99.90;;;;;;5116710;28;20017;-76
2023/12/18 03:24:14;;;;;;;16.08;5.57;;;7.70;99.90;;;;;;5098172;28;20026;-77
2023/12/18 03:26:40;;;;;;;16.50;5.25;;;7.60;99.90;;;;;;5116263;28;20099;-77
2023/12/18 03:29:05;;;;;;;23.10;5.10;;;7.60;99.90;;;;;;5098074;28;20482;-77
2023/12/18 03:31:31;;;;;;;14.50;5.72;;;7.60;99.90;;;;;;5098139;28;20103;-76
2023/12/18 03:34:00;;;;;;;19.40;5.88;;;7.70;99.90;;;;;;5098415;28;20019;-75
2023/12/18 03:36:25;;;;;;;13.13;4.88;;;7.70;99.90;;;;;;5116777;28;20494;-75
2023/12/18 03:38:51;;;;;;;16.42;6.03;;;7.60;99.90;;;;;;5116615;28;20073;-75
2023/12/18 03:41:16;;;;;;;17.27;5.70;;;7.70;99.90;;;;;;5116462;28;20042;-76
2023/12/18 03:43:42;;;;;;;15.98;6.40;;;7.60;99.90;;;;;;5116240;28;20020;-76
2023/12/18 03:46:07;;;;;;;17.90;6.10;;;7.60;99.90;;;;;;5098073;28;20132;-75
2023/12/18 03:48:33;;;;;;;26.05;6.30;;;7.60;99.90;;;;;;5116125;28;20024;-75
2023/12/18 03:50:58;;;;;;;14.35;6.00;;;7.50;99.90;;;;;;5116005;28;20027;-77
2023/12/18 03:53:24;;;;;;;18.65;6.38;;;7.60;99.90;;;;;;5116436;28;20032;-76
2023/12/18 03:55:50;;;;;;;19.33;5.85;;;7.60;99.90;;;;;;5115805;28;20390;-76
2023/12/18 03:58:15;;;;;;;18.05;7.05;;;7.60;99.90;;;;;;5097541;28;20475;-76
2023/12/18 04:00:41;;;;;;;17.77;5.57;;;7.50;99.90;;;;;;5115564;28;20024;-76
2023/12/18 04:03:07;;;;;;;18.42;7.32;;;7.50;99.90;;;;;;5117115;28;20019;-77
2023/12/18 04:05:33;;;;;;;12.07;5.53;;;7.60;99.90;;;;;;5117687;28;20016;-78
2023/12/18 04:07:58;;;;;;;15.95;5.95;;;7.50;99.90;;;;;;5098467;28;20024;-77
2023/12/18 04:10:24;;;;;;;16.25;5.93;;;7.50;99.90;;;;;;5118286;28;20027;-77
2023/12/18 04:12:51;;;;;;;22.17;7.07;;;7.60;99.90;;;;;;5099757;28;20110;-77
2023/12/18 04:15:17;;;;;;;18.60;5.53;;;7.60;99.90;;;;;;5100213;28;20008;-77
2023/12/18 04:17:42;;;;;;;16.92;6.03;;;7.50;99.90;;;;;;5118561;28;20034;-77
2023/12/18 04:20:08;;;;;;;15.93;6.65;;;7.50;99.90;;;;;;5118094;28;20106;-77
2023/12/18 04:22:34;;;;;;;16.20;5.45;;;7.50;99.90;;;;;;5099835;28;20016;-77
2023/12/18 04:25:00;;;;;;;17.15;5.90;;;7.50;99.90;;;;;;5118457;28;20034;-77
2023/12/18 04:27:25;;;;;;;16.15;6.28;;;7.60;99.90;;;;;;5117888;28;20027;-77
2023/12/18 04:29:51;;;;;;;17.42;5.88;;;7.50;99.90;;;;;;5099260;28;20024;-77
2023/12/18 04:32:16;;;;;;;24.52;6.70;;;7.60;99.90;;;;;;5099455;28;20023;-77
2023/12/18 04:34:42;;;;;;;19.45;5.93;;;7.60;99.90;;;;;;5117574;28;20050;-77
2023/12/18 04:37:09;;;;;;;22.85;6.82;;;7.60;99.90;;;;;;5099558;28;20541;-77
2023/12/18 04:39:34;;;;;;;18.15;7.25;;;7.60;99.90;;;;;;5117582;28;20024;-77
2023/12/18 04:42:03;;;;;;;18.75;5.72;;;7.60;99.90;;;;;;5117800;28;20028;-77
2023/12/18 04:44:28;;;;;;;24.02;7.18;;;7.60;99.90;;;;;;5099333;28;20034;-77
2023/12/18 04:46:54;;;;;;;12.88;5.97;;;7.60;99.90;;;;;;5117532;28;20459;-77
2023/12/18 04:49:20;;;;;;;16.90;5.75;;;7.60;99.90;;;;;;5098936;28;20055;-77
2023/12/18 04:51:46;;;;;;;16.98;5.65;;;7.60;99.90;;;;;;5117785;28;20035;-77
2023/12/18 04:54:11;;;;;;;19.63;6.85;;;7.60;99.90;;;;;;5117637;28;20058;-77
2023/12/18 04:56:37;;;;;;;19.20;6.45;;;7.60;99.90;;;;;;5117815;28;20463;-77
2023/12/18 04:59:02;;;;;;;20.80;5.63;;;7.50;99.90;;;;;;5116955;28;20024;-77
2023/12/18 05:01:28;;;;;;;18.83;6.60;;;7.60;99.90;;;;;;5117395;28;20028;-77
2023/12/18 05:03:54;;;;;;;12.48;5.60;;;7.60;99.90;;;;;;5116668;28;20377;-77
2023/12/18 05:06:23;;;;;;;13.77;6.38;;;7.70;99.90;;;;;;5098215;28;20015;-78
2023/12/18 05:08:49;;;;;;;13.10;5.75;;;7.70;99.90;;;;;;5114844;28;20023;-77
2023/12/18 05:11:25;;;;;;;18.80;6.07;;;7.70;99.90;;;;;;5097877;28;20012;-77
2023/12/18 05:13:51;;;;;;;16.17;6.07;;;7.70;99.90;;;;;;5116914;28;20487;-77
2023/12/18 05:16:21;;;;;;;21.55;6.40;;;7.70;99.90;;;;;;5097887;28;20135;-77
2023/12/18 05:18:46;;;;;;;17.15;6.43;;;7.70;99.90;;;;;;5116437;28;20493;-77
2023/12/18 05:21:12;;;;;;;21.50;6.70;;;7.70;99.90;;;;;;5098079;28;20012;-77
2023/12/18 05:23:39;;;;;;;14.38;5.65;;;7.70;99.90;;;;;;5116584;28;20032;-77
2023/12/18 05:26:04;;;;;;;17.30;6.55;;;7.60;99.90;;;;;;5115086;28;20024;-76
2023/12/18 05:28:30;;;;;;;21.45;7.25;;;7.60;99.90;;;;;;5115102;28;20111;-77
2023/12/18 05:30:55;;;;;;;20.88;5.68;;;7.60;99.90;;;;;;5114942;28;20034;-76
2023/12/18 05:33:21;;;;;;;19.80;6.47;;;7.70;99.90;;;;;;5115582;28;20072;-78
2023/12/18 05:35:47;;;;;;;25.10;7.57;;;7.80;99.90;;;;;;5115190;28;20015;-78
2023/12/18 05:38:12;;;;;;;18.48;6.93;;;7.70;99.90;;;;;;5096959;28;20049;-76
2023/12/18 05:40:38;;;;;;;16.92;5.85;;;7.70;99.90;;;;;;5114895;28;20032;-77
2023/12/18 05:43:04;;;;;;;18.52;6.57;;;7.70;99.90;;;;;;5095862;28;20028;-77
2023/12/18 05:45:33;;;;;;;13.77;6.18;;;7.70;99.90;;;;;;5116448;28;20023;-77
2023/12/18 05:47:59;;;;;;;17.60;6.57;;;7.80;99.90;;;;;;5115116;28;20098;-78
2023/12/18 05:50:25;;;;;;;18.05;6.63;;;7.70;99.90;;;;;;5114918;28;20024;-76
2023/12/18 05:52:50;;;;;;;20.20;6.68;;;7.80;99.90;;;;;;5096796;28;20036;-76
2023/12/18 05:55:16;;;;;;;16.48;6.72;;;7.80;99.90;;;;;;5114154;28;20031;-76
2023/12/18 05:57:42;;;;;;;19.35;6.63;;;7.70;99.90;;;;;;5096121;28;20015;-77
2023/12/18 06:00:09;;;;;;;17.65;7.63;;;7.70;99.90;;;;;;5113856;28;20115;-76
2023/12/18 06:02:35;;;;;;;23.27;6.30;;;7.70;99.90;;;;;;5114325;28;20020;-76
2023/12/18 06:05:01;;;;;;;19.88;7.55;;;;;;;;;;5095707;28;20039;-76
2023/12/18 06:07:27;;;;;;;20.20;6.60;;;7.70;99.90;;;;;;5095919;28;20054;-76
2023/12/18 06:09:52;;;;;;;20.00;6.72;;;7.80;99.90;;;;;;5114255;28;20448;-76
2023/12/18 06:12:18;;;;;;;14.15;7.00;;;7.80;99.90;;;;;;5113919;28;20085;-76
2023/12/18 06:14:43;;;;;;;15.98;6.90;;;7.70;99.90;;;;;;5095789;28;20031;-77
2023/12/18 06:17:09;;;;;;;24.75;7.00;;;7.80;99.90;;;;;;5114576;28;20024;-76
2023/12/18 06:19:35;;;;;;;19.27;7.30;;;7.70;99.90;;;;;;5114831;28;20046;-77
2023/12/18 06:22:04;;;;;;;19.27;7.10;;;7.70;99.90;;;;;;5115195;28;20024;-77
2023/12/18 06:24:30;;;;;;;20.75;7.07;;;7.70;99.90;;;;;;5097540;28;20027;-76
2023/12/18 06:26:56;;;;;;;26.13;7.78;;;7.70;99.90;;;;;;5114809;28;20475;-77
2023/12/18 06:29:22;;;;;;;19.88;7.85;;;7.60;99.90;;;;;;5114024;28;20028;-78
2023/12/18 06:31:51;;;;;;;18.23;7.40;;;7.60;99.90;;;;;;5096881;28;20083;-77
2023/12/18 06:34:16;;;;;;;21.33;7.88;;;7.60;99.90;;;;;;5116158;28;20011;-78
2023/12/18 06:36:43;;;;;;;21.17;7.97;;;7.60;99.90;;;;;;5114902;28;20406;-77
2023/12/18 06:39:10;;;;;;;23.00;7.65;;;7.70;99.90;;;;;;5114583;28;20406;-78
2023/12/18 06:41:35;;;;;;;25.88;7.90;;;7.60;99.90;;;;;;5114581;28;20020;-78
2023/12/18 06:44:02;;;;;;;19.77;7.28;;;7.60;99.90;;;;;;5114193;28;20028;-76
2023/12/18 06:46:28;;;;;;;15.98;7.20;;;7.60;99.90;;;;;;5113887;28;20103;-76
2023/12/18 06:48:55;;;;;;;20.88;7.53;;;7.60;99.90;;;;;;5113405;28;20091;-76
2023/12/18 06:51:20;;;;;;;24.85;8.55;;;7.60;99.90;;;;;;5095985;28;20019;-76
2023/12/18 06:53:46;;;;;;;22.05;8.00;;;7.60;99.90;;;;;;5096499;28;20023;-78
2023/12/18 06:56:12;;;;;;;23.10;8.32;;;8.00;99.90;;;;;;5117391;28;20024;-78
2023/12/18 06:58:39;;;;;;;22.52;7.20;;;7.60;99.90;;;;;;5118075;28;20121;-78
2023/12/18 07:01:05;;;;;;;19.38;8.23;;;7.60;99.90;;;;;;5118311;28;20012;-78
2023/12/18 07:03:30;;;;;;;19.48;7.20;;;7.60;99.90;;;;;;5117367;28;20110;-78
2023/12/18 07:05:56;;;;;;;17.35;6.82;;;7.60;99.90;;;;;;5098872;28;20055;-77
2023/12/18 07:08:21;;;;;;;20.77;8.00;;;7.60;99.90;;;;;;5117244;28;20055;-76
2023/12/18 07:10:47;;;;;;;17.27;7.20;;;7.60;99.90;;;;;;5099723;28;20020;-76
2023/12/18 07:13:13;;;;;;;20.30;8.93;;;7.60;99.90;;;;;;5117879;28;20027;-76
2023/12/18 07:15:39;;;;;;;21.13;7.63;;;7.60;99.90;;;;;;5117846;28;20058;-77
2023/12/18 07:18:07;;;;;;;20.27;8.02;;;7.60;99.90;;;;;;5100365;28;20463;-76
2023/12/18 07:20:32;;;;;;;26.05;7.65;;;7.50;99.90;;;;;;5119177;28;20023;-77
2023/12/18 07:22:58;;;;;;;21.15;8.77;;;7.50;99.90;;;;;;5119442;28;20028;-77
2023/12/18 07:25:24;;;;;;;24.95;8.48;;;7.50;99.90;;;;;;5101648;28;20066;-77
2023/12/18 07:27:49;;;;;;;20.17;8.27;;;7.60;99.90;;;;;;5101249;28;20016;-77
2023/12/18 07:30:15;;;;;;;21.63;8.15;;;7.60;99.90;;;;;;5118902;28;20026;-77
2023/12/18 07:32:40;;;;;;;19.55;7.22;;;7.60;99.90;;;;;;5118521;28;20031;-78
2023/12/18 07:35:15;;;;;;;20.50;7.40;;;7.50;99.90;;;;;;5099598;28;20397;-77
2023/12/18 07:37:41;;;;;;;15.88;7.57;;;7.50;99.90;;;;;;5116532;28;20390;-77
2023/12/18 07:40:07;;;;;;;17.88;7.70;;;7.50;99.90;;;;;;5116446;28;20031;-77
2023/12/18 07:42:42;;;;;;;16.50;7.10;;;7.60;99.90;;;;;;5116632;28;20031;-77
2023/12/18 07:45:08;;;;;;;18.77;8.73;;;7.60;99.90;;;;;;5098738;28;20020;-77
2023/12/18 07:47:33;;;;;;;17.60;8.05;;;7.60;99.90;;;;;;5116380;28;20475;-77
2023/12/18 07:50:04;;;;;;;24.70;8.32;;;7.60;99.90;;;;;;5098047;28;20103;-77
2023/12/18 07:52:35;;;;;;;17.63;7.53;;;7.60;99.90;;;;;;5116456;28;20084;-77
2023/12/18 07:55:05;;;;;;;18.85;7.68;;;7.60;99.90;;;;;;5116296;28;20088;-77
2023/12/18 07:57:31;;;;;;;18.50;7.90;;;8.10;99.90;;;;;;5116331;28;20020;-76
2023/12/18 07:59:56;;;;;;;19.52;7.88;;;7.60;99.90;;;;;;5097858;28;20035;-77
2023/12/18 08:02:22;;;;;;;22.92;7.40;;;7.60;99.90;;;;;;5098175;28;20019;-77
2023/12/18 08:04:47;;;;;;;16.55;6.65;;;7.60;99.90;;;;;;5115447;28;20020;-77
2023/12/18 08:07:13;;;;;;;21.88;8.93;;;7.60;99.90;;;;;;5115396;28;20505;-77
2023/12/18 08:09:40;;;;;;;22.17;8.07;;;7.60;99.90;;;;;;5097724;28;20031;-77
2023/12/18 08:12:06;;;;;;;19.70;7.47;;;7.60;99.90;;;;;;5115670;28;20015;-77
2023/12/18 08:14:32;;;;;;;22.13;7.55;;;7.60;99.90;;;;;;5116073;28;20093;-79
2023/12/18 08:16:57;;;;;;;18.90;7.97;;;7.60;99.90;;;;;;5115700;28;20471;-75
2023/12/18 08:19:23;;;;;;;16.13;7.57;;;7.70;99.90;;;;;;5115571;28;20028;-75
2023/12/18 08:21:48;;;;;;;22.50;8.70;;;7.70;99.90;;;;;;5115729;28;20019;-75
2023/12/18 08:24:14;;;;;;;15.00;7.20;;;7.70;99.90;;;;;;5115743;28;20091;-75
2023/12/18 08:26:39;;;;;;;20.33;7.45;;;7.70;99.90;;;;;;5115224;28;20386;-75
2023/12/18 08:29:05;;;;;;;19.00;7.57;;;7.70;99.90;;;;;;5115155;28;20543;-74
2023/12/18 08:31:31;;;;;;;17.67;8.25;;;7.60;99.90;;;;;;5115088;28;20031;-75
2023/12/18 08:33:58;;;;;;;18.52;7.63;;;7.70;99.90;;;;;;5115077;28;20026;-75
2023/12/18 08:36:24;;;;;;;15.13;6.75;;;7.70;99.90;;;;;;5115278;28;20028;-75
2023/12/18 08:38:49;;;;;;;19.23;7.40;;;7.80;99.90;;;;;;5097085;28;20388;-75
2023/12/18 08:41:15;;;;;;;20.67;7.20;;;7.80;99.90;;;;;;5115097;28;20395;-75
2023/12/18 08:43:43;;;;;;;20.15;7.35;;;7.80;99.90;;;;;;5115645;28;20136;-75
2023/12/18 08:46:08;;;;;;;20.23;7.95;;;7.70;99.90;;;;;;5096860;28;20031;-75
2023/12/18 08:48:34;;;;;;;20.08;6.90;;;7.80;99.90;;;;;;5097179;28;20024;-75
2023/12/18 08:50:59;;;;;;;24.75;8.20;;;8.80;99.90;;;;;;5115326;28;20098;-75
2023/12/18 08:53:25;;;;;;;20.60;6.88;;;7.80;99.90;;;;;;5114797;28;20398;-75
2023/12/18 08:55:51;;;;;;;24.55;8.20;;;7.80;99.90;;;;;;5115108;28;20020;-75
2023/12/18 08:58:16;;;;;;;18.58;7.55;;;7.80;99.90;;;;;;5115144;28;20463;-75
2023/12/18 09:00:42;;;;;;;20.95;7.53;;;7.80;99.90;;;;;;5114891;28;20029;-75
2023/12/18 09:03:08;;;;;;;18.92;7.05;;;7.90;99.90;;;;;;5096591;28;20114;-75
2023/12/18 09:05:33;;;;;;;17.73;7.35;;;7.90;99.90;;;;;;5115027;28;20031;-75
2023/12/18 09:08:00;;;;;;;21.88;7.68;;;7.90;99.90;;;;;;5115034;28;20039;-75
2023/12/18 09:10:29;;;;;;;17.30;8.05;;;7.90;99.90;;;;;;5114641;28;20020;-77
2023/12/18 09:12:55;;;;;;;21.20;7.20;;;;;;;;;;5114602;28;20020;-77
2023/12/18 09:15:20;;;;;;;18.95;7.07;;;7.90;99.90;;;;;;5114983;28;20027;-77
2023/12/18 09:17:46;;;;;;;18.58;7.53;;;7.90;99.90;;;;;;5096081;28;20047;-77
2023/12/18 09:20:12;;;;;;;22.38;6.95;;;7.90;99.90;;;;;;5114894;28;20019;-76
2023/12/18 09:22:37;;;;;;;20.48;8.15;;;8.00;99.90;;;;;;5096281;28;20016;-75
2023/12/18 09:25:03;;;;;;;20.10;6.72;;;7.90;99.90;;;;;;5096315;28;20382;-76
2023/12/18 09:27:29;;;;;;;22.25;7.25;;;8.10;99.90;;;;;;5115038;28;20052;-75
2023/12/18 09:29:55;;;;;;;19.13;7.05;;;8.10;99.90;;;;;;5114358;28;20026;-76
2023/12/18 09:32:21;;;;;;;22.23;7.60;;;8.10;99.90;;;;;;5114475;28;20041;-75
2023/12/18 09:34:47;;;;;;;16.60;6.90;;;8.00;99.90;;;;;;5114174;28;20019;-76
2023/12/18 09:37:12;;;;;;;18.63;6.97;;;8.00;99.90;;;;;;5095940;28;20439;-75
2023/12/18 09:39:41;;;;;;;24.90;6.97;;;8.10;99.90;;;;;;5114264;28;20386;-75
2023/12/18 09:42:09;;;;;;;20.23;8.15;;;8.10;99.90;;;;;;5095937;28;20107;-76
2023/12/18 09:44:36;;;;;;;16.08;6.57;;;8.10;99.90;;;;;;5114231;28;20032;-76
2023/12/18 09:47:01;;;;;;;20.77;8.25;;;8.10;99.90;;;;;;5113951;28;20067;-75
2023/12/18 09:49:27;;;;;;;18.23;7.10;;;8.10;99.90;;;;;;5114475;28;20027;-76
2023/12/18 09:51:53;;;;;;;18.65;6.60;;;8.60;99.90;;;;;;5114011;28;20098;-76
2023/12/18 09:54:23;;;;;;;21.25;7.53;;;8.20;99.90;;;;;;5095849;28;20026;-75
2023/12/18 09:56:50;;;;;;;16.83;7.10;;;8.20;99.90;;;;;;5114206;28;20478;-75
2023/12/18 09:59:16;;;;;;;21.13;8.80;;;8.30;99.90;;;;;;5095665;28;20022;-76
2023/12/18 10:01:43;;;;;;;17.42;7.45;;;8.30;99.90;;;;;;5095883;28;20023;-76
2023/12/18 10:04:09;;;;;;;25.85;7.05;;;8.30;99.90;;;;;;5096325;28;20024;-75
2023/12/18 10:06:34;;;;;;;17.95;7.25;;;8.40;99.90;;;;;;5113881;28;20023;-75
2023/12/18 10:09:14;;;;;;;20.88;7.57;;;9.50;99.90;;;;;;5095745;28;20073;-75
2023/12/18 10:11:41;;;;;;;21.42;6.63;;;8.60;99.90;;;;;;5113964;28;20466;-75
2023/12/18 10:14:06;;;;;;;23.52;7.22;;;8.60;99.90;;;;;;5113981;28;20068;-75
2023/12/18 10:16:32;;;;;;;14.52;6.25;;;8.60;99.90;;;;;;5114612;28;20428;-75
2023/12/18 10:18:58;;;;;;;23.60;7.18;;;8.70;99.90;;;;;;5113843;28;20098;-75
2023/12/18 10:21:24;;;;;;;22.13;6.30;;;8.80;99.90;;;;;;5095427;28;20474;-75
2023/12/18 10:23:52;;;;;;;21.33;6.82;;;8.80;99.90;;;;;;5113698;28;20479;-75
2023/12/18 10:26:18;;;;;;;16.65;6.53;;;8.80;99.90;;;;;;5095924;28;20038;-75
2023/12/18 10:28:44;;;;;;;16.63;7.65;;;8.90;99.90;;;;;;5114990;28;20024;-77
2023/12/18 10:31:10;;;;;;;19.85;6.60;;;8.80;99.90;;;;;;5100143;28;20028;-76
2023/12/18 10:33:37;;;;;;;14.70;6.30;;;10.20;99.90;;;;;;5099800;28;20110;-77
2023/12/18 10:36:05;;;;;;;17.88;7.03;;;8.80;99.90;;;;;;5118923;28;20506;-77
2023/12/18 10:38:36;;;;;;;18.05;7.32;;;8.80;99.90;;;;;;5119115;28;20077;-77
2023/12/18 10:41:04;;;;;;;17.77;6.90;;;8.70;99.90;;;;;;5119019;28;20547;-77
2023/12/18 10:43:32;;;;;;;19.67;6.85;;;8.80;99.90;;;;;;5119426;28;20080;-77
2023/12/18 10:45:59;;;;;;;24.98;7.35;;;8.70;99.90;;;;;;5100454;28;20112;-77
2023/12/18 10:48:25;;;;;;;18.80;6.75;;;8.80;99.90;;;;;;5100105;28;20047;-77
2023/12/18 10:50:57;;;;;;;19.13;6.90;;;8.80;99.90;;;;;;5099792;28;20026;-77
2023/12/18 10:53:23;;;;;;;24.13;6.90;;;8.80;99.90;;;;;;5118799;28;20106;-77
2023/12/18 10:55:50;;;;;;;17.15;7.15;;;8.80;99.90;;;;;;5117753;28;20391;-77
2023/12/18 10:58:19;;;;;;;24.35;8.25;;;8.90;99.90;;;;;;5118695;28;20016;-77
2023/12/18 11:00:46;;;;;;;16.33;6.55;;;8.90;99.90;;;;;;5118188;28;20026;-76
2023/12/18 11:03:13;;;;;;;15.65;6.57;;;8.90;99.90;;;;;;5118595;28;20073;-77
2023/12/18 11:05:40;;;;;;;17.80;6.85;;;8.90;99.90;;;;;;5118616;28;20031;-77
2023/12/18 11:08:06;;;;;;;19.48;6.63;;;8.90;99.90;;;;;;5119027;28;20106;-77
2023/12/18 11:10:31;;;;;;;18.38;6.93;;;9.00;99.90;;;;;;5100070;28;20465;-77
2023/12/18 11:13:26;;;;;;;14.10;5.68;;;9.00;99.90;;;;;;5118713;28;20031;-77
2023/12/18 11:16:25;;;;;;;27.42;6.75;;;9.00;99.90;;;;;;5100418;28;20498;-77
2023/12/18 11:19:17;;;;;;;15.93;5.85;;;9.10;99.90;;;;;;5118685;28;20088;-77
2023/12/18 11:21:42;;;;;;;16.60;5.90;;;9.10;99.90;;;;;;5100225;28;20020;-77
2023/12/18 11:24:10;;;;;;;19.00;6.53;;;9.10;99.90;;;;;;5118820;28;20031;-77
2023/12/18 11:26:38;;;;;;;17.88;6.45;;;9.10;99.90;;;;;;5118371;28;20015;-77
2023/12/18 11:29:24;;;;;;;15.70;6.18;;;9.20;99.90;;;;;;5100362;28;20368;-77
2023/12/18 11:31:53;;;;;;;13.90;6.22;;;9.20;99.90;;;;;;5099848;28;20028;-77
2023/12/18 11:34:20;;;;;;;14.45;5.70;;;9.20;99.90;;;;;;5100634;28;20045;-77
2023/12/18 11:36:48;;;;;;;18.05;6.60;;;9.20;99.90;;;;;;5118204;28;20475;-77
2023/12/18 11:39:13;;;;;;;18.77;6.88;;;9.30;99.90;;;;;;5117876;28;20070;-77
2023/12/18 11:41:47;;;;;;;17.55;6.95;;;9.30;99.90;;;;;;5099264;28;20510;-77
2023/12/18 11:44:16;;;;;;;26.50;6.32;;;9.30;99.90;;;;;;5099755;28;20118;-77
2023/12/18 11:46:44;;;;;;;20.65;6.53;;;9.30;99.90;;;;;;5099462;28;20513;-77
2023/12/18 11:49:12;;;;;;;13.57;6.13;;;9.30;99.90;;;;;;5117119;28;20158;-77
2023/12/18 11:51:42;;;;;;;15.43;5.17;;;9.30;99.90;;;;;;5099288;28;20491;-77
2023/12/18 11:54:07;;;;;;;21.88;6.95;;;9.30;99.90;;;;;;5099251;28;20043;-77
2023/12/18 11:56:41;;;;;;;16.85;6.35;;;9.30;99.90;;;;;;5118258;28;20016;-77
2023/12/18 11:59:07;;;;;;;14.88;5.78;;;9.50;99.90;;;;;;5117652;28;20387;-75
2023/12/18 12:01:33;;;;;;;17.52;7.03;;;9.50;99.90;;;;;;5117028;28;20091;-76
2023/12/18 12:03:59;;;;;;;18.45;5.90;;;9.60;99.90;;;;;;5098374;28;20491;-76
2023/12/18 12:06:25;;;;;;;18.40;7.22;;;9.60;99.90;;;;;;5116148;28;20020;-76
2023/12/18 12:08:51;;;;;;;19.08;6.00;;;9.40;99.90;;;;;;5116832;28;20024;-76
2023/12/18 12:11:20;;;;;;;14.52;6.13;;;9.40;99.90;;;;;;5116348;28;20076;-77
2023/12/18 12:13:47;;;;;;;21.55;6.53;;;9.40;99.90;;;;;;5116835;28;20031;-77
2023/12/18 12:16:19;;;;;;;18.02;6.47;;;10.20;99.90;;;;;;5116224;28;20069;-78
2023/12/18 12:18:54;;;;;;;17.33;5.70;;;9.40;99.90;;;;;;5116755;28;20027;-78
2023/12/18 12:21:21;;;;;;;16.02;6.00;;;10.40;99.90;;;;;;5116147;28;20019;-77
2023/12/18 12:23:47;;;;;;;14.55;5.40;;;9.40;99.90;;;;;;5117244;28;20031;-77
2023/12/18 12:26:16;;;;;;;14.35;5.68;;;9.40;99.90;;;;;;5098605;28;20019;-77
2023/12/18 12:28:42;;;;;;;21.83;7.18;;;9.40;99.90;;;;;;5098499;28;20527;-77
2023/12/18 12:31:08;;;;;;;18.00;6.30;;;9.40;99.90;;;;;;5098512;28;20020;-77
2023/12/18 12:33:45;;;;;;;24.95;6.25;;;9.40;99.90;;;;;;5098137;28;20028;-77
2023/12/18 12:36:16;;;;;;;14.07;5.60;;;9.50;99.90;;;;;;5116778;28;20100;-77
2023/12/18 12:38:43;;;;;;;14.20;5.22;;;9.40;99.90;;;;;;5116744;28;20019;-77
2023/12/18 12:41:09;;;;;;;17.80;5.88;;;9.50;99.90;;;;;;5116520;28;20038;-77
2023/12/18 12:43:35;;;;;;;15.25;5.47;;;9.50;99.90;;;;;;5117403;28;20024;-77
2023/12/18 12:46:01;;;;;;;14.35;5.38;;;9.40;99.90;;;;;;5116716;28;20020;-77